createdAt,value
2022-08-05T00:01:48.460Z,101044.03
2022-08-05T00:06:44.044Z,101077.09
2022-08-05T00:11:49.661Z,101108.28
2022-08-05T00:16:52.347Z,100995.25
2022-08-05T00:21:48.589Z,101027.91
2022-08-05T00:26:46.691Z,101076.56
2022-08-05T00:32:10.135Z,101080.97
2022-08-05T00:37:09.673Z,100944.13
2022-08-05T00:42:08.666Z,101100.16
2022-08-05T00:47:05.731Z,101106.50
2022-08-05T00:52:00.809Z,101027.16
2022-08-05T00:56:54.053Z,101047.03
2022-08-05T01:01:48.602Z,101085.88
2022-08-05T01:06:46.572Z,100970.22
2022-08-05T01:11:45.640Z,101017.09
2022-08-05T01:16:48.953Z,101022.09
2022-08-05T01:22:15.422Z,101087.44
2022-08-05T01:27:29.351Z,101080.34
2022-08-05T01:32:33.610Z,101087.31
2022-08-05T01:37:46.347Z,100991.28
2022-08-05T01:42:41.674Z,100947.59
2022-08-05T01:47:39.537Z,100961.81
2022-08-05T01:52:39.488Z,101047.59
2022-08-05T01:58:09.367Z,101032.13
2022-08-05T02:02:56.433Z,101094.16
2022-08-05T02:08:00.134Z,100983.75
2022-08-05T02:12:58.510Z,101097.13
2022-08-05T02:18:30.925Z,101101.88
2022-08-05T02:23:14.984Z,101068.56
2022-08-05T02:28:11.984Z,101023.09
2022-08-05T02:33:11.326Z,100964.78
2022-08-05T02:38:05.488Z,101095.78
2022-08-05T02:43:03.874Z,101062.13
2022-08-05T02:48:11.868Z,100997.09
2022-08-05T02:53:11.779Z,100914.28
2022-08-05T02:58:11.487Z,101105.13
2022-08-05T03:03:10.241Z,101055.81
2022-08-05T03:08:09.478Z,101109.81
2022-08-05T03:17:57.764Z,101000.69
2022-08-05T03:22:51.354Z,101118.59
2022-08-05T03:27:58.973Z,100887.38
2022-08-05T03:32:54.685Z,101111.06
2022-08-05T03:37:48.219Z,100920.66
2022-08-05T03:42:52.271Z,101115.38
2022-08-05T03:47:45.902Z,101026.97
2022-08-05T03:54:59.972Z,101111.75
2022-08-05T03:58:06.477Z,101040.69
2022-08-05T04:03:04.382Z,101014.53
2022-08-05T04:07:59.016Z,101105.28
2022-08-05T04:12:52.934Z,101119.34
2022-08-05T04:17:56.159Z,101118.00
2022-08-05T04:22:53.251Z,101112.03
2022-08-05T04:27:57.188Z,101065.81
2022-08-05T04:32:53.816Z,101076.75
2022-08-05T04:38:02.230Z,101117.78
2022-08-05T04:42:59.389Z,100975.56
2022-08-05T04:47:54.893Z,101119.66
2022-08-05T04:52:50.916Z,101120.09
2022-08-05T04:57:47.792Z,101051.44
2022-08-05T05:02:45.247Z,101085.81
2022-08-05T05:07:40.173Z,101076.88
2022-08-05T05:12:46.330Z,101094.94
2022-08-05T05:17:57.159Z,101116.53
2022-08-05T05:22:54.775Z,101051.38
2022-08-05T05:27:53.665Z,100925.19
2022-08-05T05:32:51.510Z,101097.09
2022-08-05T05:37:59.500Z,101095.91
2022-08-05T05:42:56.818Z,101013.75
2022-08-05T05:48:05.333Z,101004.94
2022-08-05T05:53:01.129Z,100966.53
2022-08-05T05:57:54.462Z,100950.53
2022-08-05T06:02:56.493Z,101102.81
2022-08-05T06:07:57.609Z,100995.25
2022-08-05T06:12:55.147Z,101096.44
2022-08-05T06:17:52.589Z,101102.22
2022-08-05T06:22:47.842Z,101007.94
2022-08-05T06:28:11.224Z,101075.75
2022-08-05T06:32:56.104Z,101100.22
2022-08-05T06:37:57.342Z,101087.53
2022-08-05T06:42:54.577Z,101091.00
2022-08-05T06:48:36.869Z,100936.56
2022-08-05T06:53:11.759Z,100890.28
2022-08-05T06:58:35.495Z,101006.94
2022-08-05T07:03:32.842Z,100931.72
2022-08-05T07:08:29.234Z,100996.13
2022-08-05T07:13:59.743Z,101083.94
2022-08-05T07:18:56.427Z,101087.09
2022-08-05T07:23:54.907Z,100920.25
2022-08-05T07:28:53.740Z,101002.66
2022-08-05T07:33:47.322Z,101010.25
2022-08-05T07:38:43.217Z,101015.22
2022-08-05T07:43:39.126Z,101055.00
2022-08-05T07:49:02.311Z,101002.75
2022-08-05T07:53:50.020Z,101080.50
2022-08-05T07:58:57.636Z,101076.59
2022-08-05T08:03:52.854Z,101025.00
2022-08-05T08:08:53.811Z,100932.25
2022-08-05T08:14:00.792Z,101085.53
2022-08-05T08:18:54.532Z,100992.00
2022-08-05T08:24:01.846Z,101048.28
2022-08-05T08:29:21.540Z,100965.34
2022-08-05T08:34:13.823Z,101038.91
2022-08-05T08:39:19.743Z,101018.66
2022-08-05T08:45:18.857Z,100929.63
2022-08-05T08:50:22.276Z,100958.69
2022-08-05T08:54:53.792Z,101045.94
2022-08-05T09:00:28.701Z,101041.66
2022-08-05T09:05:38.378Z,101049.50
2022-08-05T09:11:04.302Z,101042.66
2022-08-05T09:16:04.041Z,100892.31
2022-08-05T09:21:11.641Z,100944.63
2022-08-05T09:26:20.501Z,101021.97
2022-08-05T09:32:39.919Z,100795.22
2022-08-05T09:38:17.286Z,100860.88
2022-08-05T09:43:01.763Z,101021.84
2022-08-05T09:47:56.811Z,100987.91
2022-08-05T09:53:00.131Z,100966.16
2022-08-05T09:57:59.720Z,100984.59
2022-08-05T10:02:55.058Z,100970.97
2022-08-05T10:08:35.880Z,100867.66
2022-08-05T10:13:10.137Z,100994.75
2022-08-05T10:18:13.854Z,100957.88
2022-08-05T10:23:34.277Z,100980.78
2022-08-05T10:28:29.601Z,100970.53
2022-08-05T10:33:28.920Z,100952.06
2022-08-05T10:38:26.212Z,100941.72
2022-08-05T10:43:35.775Z,100928.53
2022-08-05T10:48:52.983Z,100961.25
2022-08-05T10:53:58.198Z,100941.84
2022-08-05T11:00:01.049Z,100928.72
2022-08-05T11:04:26.382Z,100893.34
2022-08-05T11:09:39.517Z,100938.50
2022-08-05T11:20:10.030Z,100930.66
2022-08-05T11:26:05.040Z,100934.25
2022-08-05T11:31:58.503Z,100914.91
2022-08-05T11:36:52.653Z,100866.44
2022-08-05T11:41:58.091Z,100895.38
2022-08-05T11:46:58.633Z,100907.00
2022-08-05T11:52:11.057Z,100903.22
2022-08-05T11:57:25.679Z,100893.41
2022-08-05T12:02:31.766Z,100893.44
2022-08-05T12:08:03.399Z,100801.97
2022-08-05T12:12:58.393Z,100889.81
2022-08-05T12:18:03.133Z,100878.91
2022-08-05T12:23:09.663Z,100854.06
2022-08-05T12:28:04.823Z,100889.50
2022-08-05T12:33:06.909Z,100797.66
2022-08-05T12:38:13.381Z,100848.72
2022-08-05T12:43:10.035Z,100863.00
2022-08-05T12:48:17.432Z,100865.06
2022-08-05T12:53:24.093Z,100858.47
2022-08-05T12:58:48.495Z,100842.91
2022-08-05T13:03:48.668Z,100836.13
2022-08-05T13:08:50.913Z,100832.16
2022-08-05T13:14:06.007Z,100843.81
2022-08-05T13:19:03.098Z,100831.13
2022-08-05T13:23:56.423Z,100818.72
2022-08-05T13:28:53.408Z,100839.63
2022-08-05T13:34:24.127Z,100814.13
2022-08-05T13:38:59.879Z,100835.53
2022-08-05T13:43:55.344Z,100833.28
2022-08-05T13:48:57.697Z,100792.47
2022-08-05T13:53:56.404Z,100806.63
2022-08-05T13:58:53.427Z,100795.91
2022-08-05T14:04:10.364Z,100804.84
2022-08-05T14:09:04.159Z,100801.13
2022-08-05T14:14:01.982Z,100782.88
2022-08-05T14:18:58.976Z,100798.91
2022-08-05T14:23:57.997Z,100787.06
2022-08-05T14:29:00.352Z,100730.03
2022-08-05T14:33:59.618Z,100788.19
2022-08-05T14:38:55.366Z,100785.75
2022-08-05T14:43:57.673Z,100757.91
2022-08-05T14:48:56.906Z,100688.78
2022-08-05T14:54:26.819Z,100755.31
2022-08-05T14:59:10.149Z,100730.47
2022-08-05T15:04:03.452Z,100758.63
2022-08-05T15:08:58.173Z,100762.75
2022-08-05T15:13:55.035Z,100759.19
2022-08-05T15:18:49.754Z,100755.53
2022-08-05T15:23:45.944Z,100736.13
2022-08-05T15:28:42.981Z,100751.31
2022-08-05T15:34:04.332Z,100750.22
2022-08-05T15:41:02.130Z,100751.25
2022-08-05T15:44:05.372Z,100699.16
2022-08-05T15:49:10.078Z,100703.97
2022-08-05T15:54:11.068Z,100546.19
2022-08-05T16:09:46.205Z,100634.53
2022-08-05T16:14:46.961Z,100568.16
2022-08-05T16:20:05.014Z,100680.00
2022-08-05T16:25:36.728Z,100536.88
2022-08-05T16:31:06.874Z,100559.97
2022-08-05T16:36:23.852Z,100626.69
2022-08-05T16:48:02.929Z,100730.88
2022-08-05T16:58:51.784Z,100544.03
2022-08-05T17:15:48.824Z,100589.28
2022-08-05T17:21:13.891Z,100520.09
2022-08-05T17:26:16.548Z,100691.44
2022-08-05T17:31:41.363Z,100680.41
2022-08-05T17:38:00.689Z,100753.63
2022-08-05T17:49:52.007Z,100562.16
2022-08-05T17:54:38.278Z,100697.94
2022-08-05T17:59:49.003Z,100651.78
2022-08-05T18:10:56.023Z,100761.50
2022-08-05T18:16:22.889Z,100708.84
2022-08-05T18:22:09.115Z,100715.28
2022-08-05T18:26:48.112Z,100609.94
2022-08-05T18:31:46.728Z,100623.16
2022-08-05T18:36:57.881Z,100567.25
2022-08-05T18:49:44.608Z,100796.72
2022-08-05T18:55:11.903Z,100628.59
2022-08-05T19:00:20.598Z,100807.44
2022-08-05T19:06:05.631Z,100809.59
2022-08-05T19:17:15.056Z,100759.03
2022-08-05T19:22:34.620Z,100628.75
2022-08-05T19:42:07.231Z,100800.03
2022-08-05T19:59:21.316Z,100626.25
2022-08-05T20:04:37.398Z,100743.69
2022-08-05T20:10:19.414Z,100605.31
2022-08-05T20:15:51.538Z,100635.00
2022-08-05T20:21:05.246Z,100745.91
2022-08-05T20:32:23.078Z,100553.19
2022-08-05T20:38:07.594Z,100636.88
2022-08-05T20:45:06.299Z,100575.22
2022-08-05T20:50:03.157Z,100793.13
2022-08-05T21:01:21.834Z,100791.84
2022-08-05T21:53:59.584Z,100673.22
2022-08-05T21:59:08.096Z,100639.94
2022-08-05T22:04:19.519Z,100765.66
2022-08-05T22:09:21.679Z,100790.25
2022-08-05T22:14:37.931Z,100631.38
2022-08-05T22:20:00.131Z,100735.91
2022-08-05T22:25:31.156Z,100567.84
2022-08-05T22:31:16.569Z,100740.63
2022-08-05T22:36:39.027Z,100773.69
2022-08-05T22:42:12.315Z,100727.22
2022-08-05T22:47:39.749Z,100777.75
2022-08-05T22:53:16.738Z,100763.59
2022-08-05T22:58:33.757Z,100777.00
2022-08-05T23:09:27.809Z,100721.13
2022-08-05T23:20:02.486Z,100507.69
2022-08-05T23:25:04.596Z,100577.91
2022-08-05T23:30:15.250Z,100702.22
2022-08-05T23:35:34.492Z,100723.19
2022-08-05T23:40:32.692Z,100592.31
2022-08-05T23:45:48.592Z,100603.41
2022-08-05T23:50:56.541Z,100574.41
2022-08-05T23:55:57.441Z,100766.94
